Time,TemperatureF,DewpointF,PressureIn,WindDirection,WindDirectionDegrees,WindSpeedMPH,WindSpeedGustMPH,Humidity,HourlyPrecipIn,Conditions,Clouds,dailyrainin,SoftwareType,DateUTC
2013-08-04 00:00:00,50.0,47.0,-100.00,ESE,108,5.0,6.0,89,0.00,,,-99.99,,2013-08-04 07:00:00,
2013-08-04 01:00:00,51.0,48.0,-100.00,ESE,109,5.0,6.0,88,0.00,,,-99.99,,2013-08-04 08:00:00,
2013-08-04 01:53:00,51.0,48.0,-100.00,ESE,109,5.0,6.0,88,0.00,,,-99.99,,2013-08-04 08:53:00,
2013-08-04 02:00:00,51.0,48.0,-100.00,ESE,115,6.0,7.0,89,0.00,,,-99.99,,2013-08-04 09:00:00,
2013-08-04 03:00:00,50.0,47.0,-100.00,SE,125,6.0,7.0,90,0.00,,,-99.99,,2013-08-04 10:00:00,
2013-08-04 03:53:00,50.0,47.0,-100.00,SE,125,6.0,7.0,90,0.00,,,-99.99,,2013-08-04 10:53:00,
2013-08-04 04:00:00,51.0,47.0,-100.00,SE,134,5.0,6.0,86,0.00,,,-99.99,,2013-08-04 11:00:00,
2013-08-04 04:53:00,51.0,47.0,-100.00,SE,134,5.0,6.0,86,0.00,,,-99.99,,2013-08-04 11:53:00,
2013-08-04 05:00:00,50.0,46.0,-100.00,SE,135,6.0,7.0,87,0.00,,,-99.99,,2013-08-04 12:00:00,
2013-08-04 06:00:00,50.0,46.0,-100.00,SE,134,6.0,7.0,85,0.00,,,-99.99,,2013-08-04 13:00:00,
2013-08-04 07:00:00,52.0,44.0,-100.00,SSE,167,6.0,8.0,74,0.00,,,-99.99,,2013-08-04 14:00:00,
2013-08-04 08:00:00,56.0,47.0,-100.00,SSE,147,6.0,8.0,72,0.00,,,-99.99,,2013-08-04 15:00:00,
2013-08-04 09:00:00,59.0,47.0,-100.00,SSE,166,6.0,7.0,65,0.00,,,-99.99,,2013-08-04 16:00:00,
2013-08-04 09:53:00,59.0,47.0,-100.00,SSE,166,6.0,7.0,65,0.00,,,-99.99,,2013-08-04 16:53:00,
2013-08-04 10:00:00,60.0,43.0,-100.00,NW,326,3.0,7.0,54,0.00,,,-99.99,,2013-08-04 17:00:00,
2013-08-04 10:53:00,60.0,43.0,-100.00,NW,326,3.0,7.0,54,0.00,,,-99.99,,2013-08-04 17:53:00,
2013-08-04 11:00:00,64.0,47.0,-100.00,WNW,294,2.0,5.0,54,0.00,,,-99.99,,2013-08-04 18:00:00,
2013-08-04 11:52:00,64.0,47.0,-100.00,WNW,294,2.0,5.0,54,0.00,,,-99.99,,2013-08-04 18:52:00,
2013-08-04 12:00:00,60.0,48.0,-100.00,West,269,1.0,2.0,64,0.00,,,-99.99,,2013-08-04 19:00:00,
2013-08-04 12:53:00,60.0,48.0,-100.00,West,269,1.0,2.0,64,0.00,,,-99.99,,2013-08-04 19:53:00,
2013-08-04 13:00:00,63.0,46.0,-100.00,WSW,258,1.0,2.0,54,0.00,,,-99.99,,2013-08-04 20:00:00,
2013-08-04 13:53:00,63.0,46.0,-100.00,WSW,258,1.0,2.0,54,0.00,,,-99.99,,2013-08-04 20:53:00,
2013-08-04 14:00:00,64.0,47.0,-100.00,NW,304,1.0,3.0,54,0.00,,,-99.99,,2013-08-04 21:00:00,
2013-08-04 14:53:00,64.0,47.0,-100.00,NW,304,1.0,3.0,54,0.00,,,-99.99,,2013-08-04 21:53:00,
2013-08-04 15:00:00,63.0,49.0,-100.00,West,274,1.0,3.0,60,0.00,,,-99.99,,2013-08-04 22:00:00,
2013-08-04 15:53:00,63.0,49.0,-100.00,West,274,1.0,3.0,60,0.00,,,-99.99,,2013-08-04 22:53:00,
2013-08-04 16:00:00,64.0,48.0,-100.00,West,280,1.0,2.0,57,0.00,,,-99.99,,2013-08-04 23:00:00,
2013-08-04 16:53:00,64.0,48.0,-100.00,West,280,1.0,2.0,57,0.00,,,-99.99,,2013-08-04 23:53:00,
2013-08-04 17:00:00,67.0,48.0,-100.00,West,274,1.0,2.0,50,0.00,,,-99.99,,2013-08-05 00:00:00,
2013-08-04 17:52:00,67.0,48.0,-100.00,West,274,1.0,2.0,50,0.00,,,-99.99,,2013-08-05 00:52:00,
2013-08-04 18:00:00,66.0,50.0,-100.00,North,0,0.0,2.0,57,0.00,,,-99.99,,2013-08-05 01:00:00,
2013-08-04 18:52:00,66.0,50.0,-100.00,North,0,0.0,2.0,57,0.00,,,-99.99,,2013-08-05 01:52:00,
2013-08-04 19:00:00,64.0,51.0,-100.00,North,0,0.0,1.0,63,0.00,,,-99.99,,2013-08-05 02:00:00,
2013-08-04 19:53:00,64.0,51.0,-100.00,North,0,0.0,1.0,63,0.00,,,-99.99,,2013-08-05 02:53:00,
2013-08-04 20:00:00,60.0,52.0,-100.00,North,0,0.0,1.0,74,0.00,,,-99.99,,2013-08-05 03:00:00,
2013-08-04 21:00:00,58.0,53.0,-100.00,WNW,284,1.0,2.0,82,0.00,,,-99.99,,2013-08-05 04:00:00,
2013-08-04 21:52:00,58.0,53.0,-100.00,WNW,284,1.0,2.0,82,0.00,,,-99.99,,2013-08-05 04:52:00,
2013-08-04 23:00:00,56.0,53.0,-100.00,West,279,2.0,2.0,89,0.00,,,-99.99,,2013-08-05 06:00:00,